Time;durP1;ratioP1;P1;durP2;ratioP2;P2;SDS_P1;SDS_P2;PMS_P1;PMS_P2;Temp;Humidity;BMP_temperature;BMP_pressure;BME280_temperature;BME280_humidity;BME280_pressure;Samples;Min_cycle;Max_cycle;Signal;HPM_P1;HPM_P2
2023/05/22 03:02:04;;;;;;;24.83;22.83;;;12.30;99.90;;;;;;5201345;23;20303;-77
2023/05/22 03:04:30;;;;;;;22.23;20.23;;;12.30;99.90;;;;;;4959563;28;20228;-77
2023/05/22 03:06:56;;;;;;;22.47;20.37;;;12.30;99.90;;;;;;4972658;28;20216;-76
2023/05/22 03:09:22;;;;;;;22.93;20.93;;;12.30;99.90;;;;;;4956045;28;20826;-76
2023/05/22 03:11:47;;;;;;;24.17;22.17;;;12.30;99.90;;;;;;4960464;28;20685;-77
2023/05/22 03:14:13;;;;;;;29.00;26.53;;;12.20;99.90;;;;;;4970063;23;20228;-78
2023/05/22 03:16:40;;;;;;;37.53;34.47;;;12.20;99.90;;;;;;4990705;28;20267;-78
2023/05/22 03:19:10;;;;;;;55.53;51.83;;;12.30;99.90;;;;;;4977917;28;20192;-78
2023/05/22 03:21:36;;;;;;;38.90;35.60;;;12.30;99.90;;;;;;4999118;28;20192;-78
2023/05/22 03:24:02;;;;;;;25.80;23.63;;;12.40;99.90;;;;;;4999012;28;20767;-79
2023/05/22 03:26:28;;;;;;;25.20;23.00;;;12.40;99.90;;;;;;4977308;28;20573;-78
2023/05/22 03:28:55;;;;;;;25.33;23.17;;;12.50;99.90;;;;;;4974966;28;20188;-78
2023/05/22 03:31:21;;;;;;;23.30;21.10;;;12.60;99.90;;;;;;4981375;28;20284;-78
2023/05/22 03:33:47;;;;;;;26.37;24.00;;;12.60;99.90;;;;;;4969680;28;20209;-78
2023/05/22 03:36:13;;;;;;;19.67;17.77;;;12.70;99.90;;;;;;4992483;28;20207;-78
2023/05/22 03:38:39;;;;;;;19.57;17.63;;;12.70;99.90;;;;;;4974658;28;20184;-78
2023/05/22 03:41:06;;;;;;;16.97;15.27;;;12.70;99.90;;;;;;4995399;28;20191;-78
2023/05/22 03:43:32;;;;;;;20.00;17.97;;;12.80;99.90;;;;;;4995040;28;20247;-78
2023/05/22 03:45:58;;;;;;;28.43;25.93;;;12.80;99.90;;;;;;4979218;28;20215;-78
2023/05/22 03:48:24;;;;;;;28.47;25.97;;;12.80;99.90;;;;;;4975319;28;20191;-78
2023/05/22 03:50:50;;;;;;;32.73;30.37;;;12.90;99.90;;;;;;4962209;28;20272;-78
2023/05/22 03:53:16;;;;;;;39.57;36.67;;;13.00;99.90;;;;;;4997970;28;20390;-77
2023/05/22 03:55:42;;;;;;;23.97;21.93;;;13.00;99.90;;;;;;4996568;28;20212;-78
2023/05/22 03:58:08;;;;;;;33.10;30.70;;;13.10;99.90;;;;;;4980315;28;20812;-79
2023/05/22 04:00:34;;;;;;;33.87;31.30;;;13.10;99.90;;;;;;4993411;28;20206;-78
2023/05/22 04:03:00;;;;;;;31.93;29.33;;;13.10;99.90;;;;;;4998243;28;20671;-77
2023/05/22 04:05:26;;;;;;;30.73;28.17;;;13.20;99.90;;;;;;4953093;28;20205;-78
2023/05/22 04:07:52;;;;;;;36.10;33.40;;;13.30;99.90;;;;;;4981675;28;20239;-78
2023/05/22 04:10:21;;;;;;;30.37;27.87;;;13.30;99.90;;;;;;4969212;28;20271;-74
2023/05/22 04:12:47;;;;;;;33.07;29.90;;;13.30;99.90;;;;;;4989473;28;20199;-74
2023/05/22 04:15:12;;;;;;;34.07;31.50;;;13.40;99.90;;;;;;4989447;28;20228;-74
2023/05/22 04:17:40;;;;;;;37.30;34.60;;;13.40;99.90;;;;;;4990626;28;20188;-74
2023/05/22 04:20:07;;;;;;;32.93;30.40;;;13.40;99.90;;;;;;4970168;28;20197;-74
2023/05/22 04:22:33;;;;;;;33.53;30.97;;;13.40;99.90;;;;;;4986727;28;20188;-74
2023/05/22 04:24:59;;;;;;;33.90;31.40;;;13.40;99.90;;;;;;4994456;28;20212;-73
2023/05/22 04:27:25;;;;;;;33.43;30.97;;;13.40;99.90;;;;;;4994536;28;20556;-74
2023/05/22 04:29:52;;;;;;;33.53;30.97;;;13.50;99.90;;;;;;4976774;28;20196;-73
2023/05/22 04:32:20;;;;;;;33.37;30.73;;;13.60;99.90;;;;;;4994681;28;20699;-74
2023/05/22 04:34:52;;;;;;;28.57;26.07;;;13.60;99.90;;;;;;4993964;28;20220;-74
2023/05/22 04:37:19;;;;;;;32.90;30.20;;;13.70;99.90;;;;;;4963851;28;20197;-73
2023/05/22 04:39:45;;;;;;;30.90;28.60;;;13.80;99.90;;;;;;4974216;28;20185;-75
2023/05/22 04:42:13;;;;;;;32.43;29.93;;;13.80;99.90;;;;;;4990282;28;20614;-75
2023/05/22 04:44:40;;;;;;;33.90;30.90;;;13.90;99.90;;;;;;4990565;28;20673;-75
2023/05/22 04:47:10;;;;;;;31.67;29.07;;;13.90;99.90;;;;;;4976424;28;20238;-74
2023/05/22 04:49:37;;;;;;;28.60;26.23;;;13.90;99.90;;;;;;4993707;28;20227;-75
2023/05/22 04:52:04;;;;;;;25.13;23.13;;;14.00;99.90;;;;;;4976588;28;20275;-74
2023/05/22 04:54:30;;;;;;;32.27;29.70;;;14.00;99.90;;;;;;4987230;28;20225;-74
2023/05/22 04:56:56;;;;;;;56.97;53.10;;;14.20;99.90;;;;;;4974466;28;20684;-75
2023/05/22 04:59:25;;;;;;;42.37;39.00;;;14.30;99.90;;;;;;4993844;28;20196;-75
2023/05/22 05:01:51;;;;;;;41.47;38.53;;;14.40;99.90;;;;;;4993564;28;20238;-74
2023/05/22 05:04:17;;;;;;;152.03;143.37;;;14.70;99.90;;;;;;4993156;28;20634;-74
2023/05/22 05:06:43;;;;;;;213.90;202.27;;;14.90;99.90;;;;;;4994922;28;20228;-74
2023/05/22 05:09:09;;;;;;;21.60;19.70;;;15.20;99.90;;;;;;4994494;28;20234;-74
2023/05/22 05:11:35;;;;;;;25.60;23.30;;;15.50;99.90;;;;;;4995162;28;20351;-75
2023/05/22 05:14:01;;;;;;;82.43;77.43;;;15.80;99.90;;;;;;4993650;28;20231;-74
2023/05/22 05:16:27;;;;;;;60.20;56.13;;;16.20;99.90;;;;;;4969949;28;20649;-73
2023/05/22 05:18:54;;;;;;;28.03;25.50;;;16.70;99.90;;;;;;4990483;28;20278;-75
2023/05/22 05:21:20;;;;;;;19.70;17.90;;;17.30;99.90;;;;;;4992120;28;20640;-72
2023/05/22 05:23:46;;;;;;;23.47;21.73;;;17.80;99.90;;;;;;4975099;28;20210;-72
2023/05/22 05:26:12;;;;;;;20.80;19.15;;;18.20;99.90;;;;;;4976091;28;20224;-75
2023/05/22 05:28:38;;;;;;;68.43;64.63;;;18.70;99.90;;;;;;4993036;28;20199;-74
2023/05/22 05:31:04;;;;;;;95.50;90.07;;;19.10;99.90;;;;;;4993209;28;20286;-71
2023/05/22 05:33:30;;;;;;;63.05;59.22;;;19.30;99.90;;;;;;4992869;28;20228;-73
2023/05/22 05:35:56;;;;;;;29.52;27.38;;;19.60;99.90;;;;;;4975552;28;20688;-75
2023/05/22 05:38:22;;;;;;;18.33;16.90;;;19.70;99.90;;;;;;4992973;28;20711;-75
2023/05/22 05:40:48;;;;;;;14.98;13.68;;;19.90;99.90;;;;;;4975559;28;20613;-72
2023/05/22 05:43:14;;;;;;;15.15;13.70;;;20.30;99.90;;;;;;4993100;28;20636;-72
2023/05/22 05:45:41;;;;;;;16.13;13.77;;;20.70;99.90;;;;;;4975502;28;20200;-72
2023/05/22 05:48:07;;;;;;;16.00;14.38;;;20.70;99.90;;;;;;4993885;28;20239;-74
2023/05/22 05:50:32;;;;;;;15.93;14.02;;;20.60;99.90;;;;;;4995031;28;20192;-72
2023/05/22 05:52:58;;;;;;;16.40;14.45;;;20.70;99.90;;;;;;4994552;28;20191;-73
2023/05/22 05:55:24;;;;;;;19.45;17.73;;;20.70;99.90;;;;;;4979051;28;20213;-70
2023/05/22 05:57:51;;;;;;;27.70;25.60;;;21.00;99.90;;;;;;4970773;28;20220;-71
2023/05/22 06:00:17;;;;;;;31.15;28.88;;;21.20;99.90;;;;;;4992733;28;20618;-71
2023/05/22 06:02:44;;;;;;;36.85;34.28;;;21.50;99.90;;;;;;4992975;28;20200;-71
2023/05/22 06:05:10;;;;;;;31.52;29.42;;;21.70;99.90;;;;;;4992407;28;20212;-71
2023/05/22 06:07:38;;;;;;;24.48;22.55;;;22.10;99.90;;;;;;4975000;28;20203;-71
2023/05/22 06:10:05;;;;;;;30.20;28.17;;;22.50;99.90;;;;;;4986357;28;20196;-72
2023/05/22 06:12:31;;;;;;;39.35;36.92;;;22.70;99.90;;;;;;4961998;28;20185;-71
2023/05/22 06:14:57;;;;;;;33.05;30.50;;;22.90;99.90;;;;;;4989398;28;20285;-70
2023/05/22 06:17:23;;;;;;;28.17;26.25;;;23.30;99.90;;;;;;4968711;28;20189;-70
2023/05/22 06:19:49;;;;;;;22.60;20.63;;;23.50;99.90;;;;;;4972435;28;20184;-70
2023/05/22 06:22:15;;;;;;;17.20;13.05;;;23.70;99.90;;;;;;4992451;28;20546;-71
2023/05/22 06:24:41;;;;;;;14.02;12.82;;;23.90;99.90;;;;;;4990119;28;20218;-71
2023/05/22 06:27:07;;;;;;;13.30;12.13;;;24.10;99.90;;;;;;4999873;28;20204;-71
2023/05/22 06:29:32;;;;;;;14.07;12.80;;;24.20;99.90;;;;;;4985210;28;20727;-71
2023/05/22 06:31:58;;;;;;;13.25;11.93;;;24.40;99.90;;;;;;4990845;28;20196;-71
2023/05/22 06:34:24;;;;;;;14.95;13.48;;;24.50;99.90;;;;;;4991739;28;20219;-70
2023/05/22 06:36:50;;;;;;;13.55;12.05;;;24.60;99.90;;;;;;4963869;28;20185;-70
2023/05/22 06:39:17;;;;;;;15.25;13.93;;;24.60;99.90;;;;;;4987830;28;20187;-71
2023/05/22 06:41:43;;;;;;;15.88;14.68;;;24.70;99.90;;;;;;4991347;28;20235;-70
2023/05/22 06:44:09;;;;;;;16.17;14.68;;;24.80;99.90;;;;;;4991604;28;20224;-71
2023/05/22 06:46:35;;;;;;;15.82;14.45;;;24.70;99.90;;;;;;4991367;28;20188;-70
2023/05/22 06:49:00;;;;;;;17.90;16.50;;;24.90;99.90;;;;;;4991344;28;20710;-72
2023/05/22 06:51:26;;;;;;;19.98;18.50;;;25.00;99.90;;;;;;4992060;28;20342;-72
2023/05/22 06:53:52;;;;;;;17.92;16.48;;;25.00;99.90;;;;;;4975010;28;20250;-70
2023/05/22 06:56:18;;;;;;;14.30;13.10;;;25.50;99.90;;;;;;4991438;28;20207;-70
2023/05/22 06:58:44;;;;;;;13.52;12.07;;;25.80;99.90;;;;;;4972005;28;20181;-72
2023/05/22 07:01:09;;;;;;;14.95;13.73;;;25.70;99.90;;;;;;4977630;28;20644;-70
2023/05/22 07:03:35;;;;;;;15.98;14.65;;;25.70;99.90;;;;;;4974352;28;20184;-71
2023/05/22 07:06:02;;;;;;;20.23;17.83;;;25.70;99.90;;;;;;4983211;28;20260;-71
2023/05/22 07:08:27;;;;;;;22.50;20.40;;;25.90;99.90;;;;;;4991493;28;20196;-70
2023/05/22 07:10:53;;;;;;;31.85;29.42;;;26.10;99.90;;;;;;4991538;28;20196;-70
2023/05/22 07:13:19;;;;;;;63.25;59.55;;;26.50;99.90;;;;;;4973903;28;20200;-72
2023/05/22 07:15:46;;;;;;;76.93;72.25;;;26.90;99.90;;;;;;4991354;28;20715;-70
2023/05/22 07:18:11;;;;;;;87.88;83.00;;;27.20;99.90;;;;;;4982880;28;20180;-71
2023/05/22 07:20:37;;;;;;;76.45;72.35;;;27.00;99.90;;;;;;4991089;28;20652;-71
2023/05/22 07:23:03;;;;;;;88.75;83.55;;;27.20;99.90;;;;;;4973726;28;20180;-70
2023/05/22 07:25:28;;;;;;;86.32;81.40;;;27.50;99.90;;;;;;4973789;28;20270;-70
2023/05/22 07:27:57;;;;;;;81.72;77.10;;;27.40;99.90;;;;;;4990233;28;20287;-71
2023/05/22 07:30:23;;;;;;;76.35;72.03;;;27.40;99.90;;;;;;4970090;28;20188;-71
2023/05/22 07:32:49;;;;;;;62.97;59.40;;;27.70;99.90;;;;;;4974426;28;20239;-71
2023/05/22 07:35:14;;;;;;;54.42;51.05;;;27.70;99.90;;;;;;4973554;28;20228;-72
2023/05/22 07:37:40;;;;;;;30.92;28.83;;;27.80;99.90;;;;;;4965419;28;20279;-72
2023/05/22 07:40:08;;;;;;;47.13;44.10;;;28.10;99.90;;;;;;4984349;28;20188;-71
2023/05/22 07:42:33;;;;;;;72.05;67.97;;;27.40;99.90;;;;;;4972034;28;20669;-71
2023/05/22 07:45:00;;;;;;;88.00;83.03;;;27.20;99.90;;;;;;4989211;28;20208;-71
2023/05/22 07:47:26;;;;;;;82.80;78.18;;;27.20;99.90;;;;;;4990096;28;20188;-70
2023/05/22 07:49:52;;;;;;;75.28;71.07;;;27.20;99.90;;;;;;4989667;28;20555;-70
2023/05/22 07:52:18;;;;;;;84.88;80.10;;;27.40;99.90;;;;;;4973216;28;20210;-71
2023/05/22 07:54:45;;;;;;;76.25;72.03;;;27.40;99.90;;;;;;4973148;28;20307;-70
2023/05/22 07:57:11;;;;;;;79.65;75.15;;;27.50;99.90;;;;;;4993037;28;20184;-71
2023/05/22 07:59:37;;;;;;;76.75;72.40;;;27.40;99.90;;;;;;4995029;28;20207;-71
2023/05/22 08:02:03;;;;;;;76.03;71.50;;;27.40;99.90;;;;;;4994852;28;20188;-71
2023/05/22 08:04:28;;;;;;;81.97;77.40;;;27.40;99.90;;;;;;4994997;28;20306;-70
2023/05/22 08:06:55;;;;;;;71.13;67.18;;;27.20;99.90;;;;;;4994775;28;20239;-71
2023/05/22 08:09:22;;;;;;;78.05;73.68;;;27.50;99.90;;;;;;4995310;28;20582;-71
2023/05/22 08:11:48;;;;;;;77.03;72.38;;;27.80;99.90;;;;;;4965761;28;20194;-72
2023/05/22 08:14:14;;;;;;;85.82;80.78;;;27.90;99.90;;;;;;4982882;28;20219;-73
2023/05/22 08:16:40;;;;;;;82.53;77.95;;;28.10;99.90;;;;;;5000499;28;20185;-72
2023/05/22 08:19:08;;;;;;;74.78;70.43;;;27.90;99.80;;;;;;4969061;28;20192;-71
2023/05/22 08:21:34;;;;;;;71.88;67.60;;;28.00;99.90;;;;;;4994414;28;20212;-71
2023/05/22 08:24:00;;;;;;;79.45;74.70;;;28.40;99.90;;;;;;4994367;28;20306;-71
2023/05/22 08:26:26;;;;;;;58.22;54.83;;;28.60;99.70;;;;;;4994675;28;20203;-72
2023/05/22 08:28:52;;;;;;;30.08;28.02;;;28.90;99.30;;;;;;4975567;28;20187;-71
2023/05/22 08:31:18;;;;;;;28.70;26.77;;;28.80;98.60;;;;;;4970930;28;20188;-71
2023/05/22 08:33:44;;;;;;;17.63;16.20;;;29.00;98.40;;;;;;4994029;28;20211;-72
2023/05/22 08:36:10;;;;;;;12.95;11.85;;;29.10;97.60;;;;;;4994203;28;20188;-70
2023/05/22 08:38:36;;;;;;;17.48;16.02;;;28.80;97.10;;;;;;4993820;28;20188;-71
2023/05/22 08:41:02;;;;;;;19.50;18.00;;;28.60;98.00;;;;;;4993900;28;20203;-71
2023/05/22 08:43:28;;;;;;;14.82;13.43;;;29.00;97.90;;;;;;4994319;28;20348;-72
2023/05/22 08:46:02;;;;;;;13.05;11.88;;;29.20;97.50;;;;;;4976616;28;20707;-71
2023/05/22 08:48:32;;;;;;;13.75;12.55;;;29.70;96.20;;;;;;4993645;28;20777;-71
2023/05/22 08:51:02;;;;;;;13.02;11.82;;;29.70;96.00;;;;;;4993810;28;20242;-71
2023/05/22 08:53:30;;;;;;;13.02;11.73;;;29.80;95.40;;;;;;4993918;28;20223;-71
2023/05/22 08:55:55;;;;;;;13.85;12.52;;;29.90;96.30;;;;;;4976152;28;20260;-71
2023/05/22 08:58:22;;;;;;;13.40;12.20;;;29.90;96.40;;;;;;4993423;28;20200;-71
2023/05/22 09:00:48;;;;;;;26.77;24.55;;;29.20;96.70;;;;;;4976315;28;20751;-71
2023/05/22 09:03:14;;;;;;;49.10;45.92;;;28.90;98.00;;;;;;4993717;28;20191;-70
2023/05/22 09:05:40;;;;;;;91.97;86.78;;;28.40;97.50;;;;;;4985806;28;20251;-71
2023/05/22 09:08:07;;;;;;;95.32;89.88;;;28.30;98.20;;;;;;4992602;28;20215;-71
2023/05/22 09:10:33;;;;;;;89.75;84.97;;;28.50;98.30;;;;;;4976112;28;20196;-71
2023/05/22 09:13:10;;;;;;;95.43;90.13;;;28.80;98.10;;;;;;4993652;28;20196;-71
2023/05/22 09:15:36;;;;;;;101.30;95.80;;;28.90;97.90;;;;;;5009452;23;20238;-72
2023/05/22 09:18:03;;;;;;;95.72;90.15;;;29.10;97.30;;;;;;4991977;28;20192;-72
2023/05/22 09:20:34;;;;;;;64.55;60.88;;;29.30;96.90;;;;;;4976809;28;20192;-72
2023/05/22 09:23:01;;;;;;;44.75;41.60;;;29.60;96.30;;;;;;4993732;28;20242;-72
2023/05/22 09:25:27;;;;;;;15.15;13.85;;;30.10;95.70;;;;;;4981193;28;20201;-71
2023/05/22 09:27:53;;;;;;;14.45;13.05;;;30.10;95.10;;;;;;4956449;28;20213;-71
2023/05/22 09:30:19;;;;;;;13.95;11.82;;;30.40;94.80;;;;;;4974101;28;20189;-71
2023/05/22 09:32:47;;;;;;;16.00;14.57;;;31.00;93.50;;;;;;4956215;28;20220;-71
2023/05/22 09:35:13;;;;;;;16.92;15.55;;;30.60;93.50;;;;;;4973778;28;20873;-73
2023/05/22 09:37:39;;;;;;;15.38;13.85;;;30.70;92.50;;;;;;4956082;28;20193;-72
2023/05/22 09:40:07;;;;;;;14.05;12.85;;;31.00;93.10;;;;;;4973543;28;20188;-72
2023/05/22 09:42:35;;;;;;;12.43;11.32;;;30.60;93.00;;;;;;4956390;28;20539;-72
2023/05/22 09:45:07;;;;;;;13.02;11.93;;;30.60;92.60;;;;;;4973562;28;20219;-72
2023/05/22 09:47:34;;;;;;;12.73;11.52;;;30.40;93.10;;;;;;4972815;28;20192;-72
2023/05/22 09:50:07;;;;;;;12.85;11.48;;;30.30;92.50;;;;;;4973493;28;20677;-72
2023/05/22 09:52:34;;;;;;;12.15;11.05;;;30.40;92.50;;;;;;4973546;28;20197;-72
2023/05/22 09:55:08;;;;;;;12.05;10.98;;;30.40;92.60;;;;;;4972861;28;20600;-73
2023/05/22 09:57:40;;;;;;;12.05;10.88;;;30.20;92.30;;;;;;4972955;28;20199;-73
2023/05/22 10:00:14;;;;;;;11.68;10.57;;;30.30;92.30;;;;;;4973274;28;20684;-73
2023/05/22 10:02:49;;;;;;;12.10;10.93;;;30.30;92.40;;;;;;4955822;28;20188;-73
2023/05/22 10:05:20;;;;;;;13.70;12.40;;;30.20;92.20;;;;;;4951533;28;20764;-73
2023/05/22 10:07:55;;;;;;;13.15;11.93;;;30.50;93.00;;;;;;4970235;28;20246;-71
2023/05/22 10:10:23;;;;;;;11.60;10.45;;;30.80;92.20;;;;;;4972850;28;20192;-71
2023/05/22 10:12:52;;;;;;;13.43;12.10;;;31.50;91.70;;;;;;4972874;28;20195;-71
2023/05/22 10:15:19;;;;;;;13.45;12.15;;;31.90;90.20;;;;;;4972974;28;20228;-72
2023/05/22 10:17:47;;;;;;;11.40;10.50;;;32.10;88.30;;;;;;4972333;28;20216;-72
2023/05/22 10:20:13;;;;;;;18.65;17.13;;;32.30;90.10;;;;;;4972310;28;20189;-72
2023/05/22 10:22:40;;;;;;;17.15;15.95;;;32.40;88.10;;;;;;4972979;28;20191;-71
2023/05/22 10:25:07;;;;;;;20.33;18.92;;;31.90;89.20;;;;;;4972488;28;20223;-71
2023/05/22 10:27:33;;;;;;;21.42;19.73;;;32.10;88.00;;;;;;4955236;28;20204;-72
2023/05/22 10:30:09;;;;;;;31.75;29.45;;;32.40;87.40;;;;;;4952682;28;20190;-71
2023/05/22 10:32:56;;;;;;;31.85;29.63;;;32.70;83.70;;;;;;4946432;29;20263;-73
2023/05/22 10:35:31;;;;;;;29.77;27.95;;;32.20;87.30;;;;;;4959425;28;20240;-74
2023/05/22 10:38:21;;;;;;;23.35;21.73;;;31.70;84.70;;;;;;4955120;28;20188;-73
2023/05/22 10:40:48;;;;;;;27.75;26.05;;;31.80;87.10;;;;;;4954471;28;20223;-73
2023/05/22 10:43:14;;;;;;;46.13;43.25;;;32.70;84.20;;;;;;4955648;28;20692;-74
2023/05/22 10:45:43;;;;;;;46.05;43.38;;;33.40;81.90;;;;;;4972656;28;20751;-74
2023/05/22 10:48:11;;;;;;;59.60;56.03;;;33.40;83.10;;;;;;4972132;28;20189;-74
2023/05/22 10:50:37;;;;;;;72.03;68.07;;;33.50;81.60;;;;;;4955168;28;20239;-72
2023/05/22 10:53:24;;;;;;;76.88;72.63;;;32.70;81.40;;;;;;4955553;28;20192;-73
2023/05/22 10:55:54;;;;;;;79.07;74.85;;;32.70;81.70;;;;;;4955087;28;20275;-73
2023/05/22 10:58:30;;;;;;;77.13;72.88;;;33.00;81.30;;;;;;4972032;28;20188;-72
2023/05/22 11:01:13;;;;;;;72.40;68.40;;;33.10;81.20;;;;;;4954850;28;20569;-72
2023/05/22 11:04:00;;;;;;;66.55;62.80;;;33.00;79.30;;;;;;4972248;28;20628;-72
2023/05/22 11:06:46;;;;;;;64.55;60.90;;;32.80;81.00;;;;;;4972280;28;20319;-73
2023/05/22 11:09:41;;;;;;;72.68;68.55;;;33.00;79.30;;;;;;4971902;28;20286;-73
2023/05/22 11:12:27;;;;;;;69.45;65.25;;;33.30;80.30;;;;;;4972710;28;20339;-72
2023/05/22 11:14:56;;;;;;;70.93;66.75;;;33.30;77.70;;;;;;4954699;28;20317;-72
2023/05/22 11:17:24;;;;;;;81.20;76.72;;;32.70;79.50;;;;;;4949340;28;20202;-73
2023/05/22 11:20:01;;;;;;;90.60;85.63;;;32.90;79.10;;;;;;4947175;28;20236;-73
2023/05/22 11:22:30;;;;;;;70.38;66.03;;;33.40;78.70;;;;;;4971969;28;20585;-73
2023/05/22 11:24:56;;;;;;;50.15;46.88;;;34.20;76.20;;;;;;4971748;28;20689;-72
2023/05/22 11:27:22;;;;;;;38.22;35.60;;;34.20;77.60;;;;;;4954395;28;20208;-73
2023/05/22 11:29:49;;;;;;;38.25;35.88;;;34.20;73.70;;;;;;4954861;28;20913;-73
2023/05/22 11:32:19;;;;;;;35.08;32.85;;;34.10;73.80;;;;;;4955200;28;20331;-72
2023/05/22 11:34:49;;;;;;;22.23;20.67;;;34.40;73.10;;;;;;4971831;28;20224;-73
2023/05/22 11:37:17;;;;;;;28.63;26.83;;;34.10;73.30;;;;;;4971770;28;20672;-73
2023/05/22 11:39:50;;;;;;;30.30;28.40;;;33.60;73.00;;;;;;4954348;28;20189;-73
2023/05/22 11:42:17;;;;;;;25.30;23.63;;;34.00;72.20;;;;;;4971981;28;20247;-73
2023/05/22 11:44:43;;;;;;;22.45;21.05;;;34.00;71.50;;;;;;4954370;28;20322;-73
2023/05/22 11:47:09;;;;;;;19.50;17.90;;;33.80;72.00;;;;;;4955066;28;20339;-73
2023/05/22 11:49:35;;;;;;;26.10;24.30;;;34.00;69.70;;;;;;4970371;28;20280;-73
2023/05/22 11:52:01;;;;;;;27.85;26.02;;;34.00;71.30;;;;;;4968670;28;20289;-73
2023/05/22 11:54:31;;;;;;;32.85;30.85;;;33.40;73.20;;;;;;4965626;28;20223;-73
2023/05/22 11:56:57;;;;;;;27.05;25.02;;;33.40;72.60;;;;;;4953508;28;20193;-73
2023/05/22 11:59:23;;;;;;;26.70;25.10;;;33.70;69.80;;;;;;4971423;28;20191;-73
2023/05/22 12:01:52;;;;;;;27.17;25.48;;;34.00;68.50;;;;;;4953674;28;20222;-73
2023/05/22 12:04:17;;;;;;;24.73;23.20;;;34.00;68.00;;;;;;4971291;28;20201;-72
2023/05/22 12:06:43;;;;;;;39.33;37.10;;;33.80;67.10;;;;;;4963371;28;20585;-73
2023/05/22 12:09:09;;;;;;;27.35;25.65;;;34.50;65.70;;;;;;4970655;28;20185;-73
2023/05/22 12:11:36;;;;;;;36.83;34.22;;;35.40;65.80;;;;;;4971675;28;20197;-73
2023/05/22 12:14:02;;;;;;;85.30;80.90;;;36.00;65.50;;;;;;4971369;28;20581;-73
2023/05/22 12:16:35;;;;;;;78.32;74.25;;;35.60;63.10;;;;;;4971014;28;20627;-73
2023/05/22 12:19:11;;;;;;;39.55;36.88;;;34.90;65.60;;;;;;4970854;28;20636;-72
2023/05/22 12:21:38;;;;;;;31.48;29.50;;;34.30;68.20;;;;;;4971373;28;20196;-73
2023/05/22 12:24:05;;;;;;;23.80;22.30;;;33.80;68.70;;;;;;4954012;28;20563;-72
2023/05/22 12:26:31;;;;;;;37.15;34.92;;;33.70;67.20;;;;;;4953785;28;20207;-73
2023/05/22 12:29:00;;;;;;;32.50;30.55;;;33.90;65.50;;;;;;4970886;28;20277;-72
2023/05/22 12:31:26;;;;;;;24.88;23.38;;;34.50;67.50;;;;;;4970754;28;20207;-72
2023/05/22 12:33:53;;;;;;;36.63;34.38;;;34.90;67.90;;;;;;4970924;28;20229;-72
2023/05/22 12:36:20;;;;;;;34.92;32.42;;;34.90;66.10;;;;;;4953905;28;20209;-72
2023/05/22 12:38:45;;;;;;;41.95;39.40;;;34.90;66.10;;;;;;4953266;28;20185;-72
2023/05/22 12:41:11;;;;;;;77.25;73.15;;;35.00;65.10;;;;;;4967188;28;20192;-72
2023/05/22 12:43:37;;;;;;;81.97;77.40;;;35.50;63.80;;;;;;4968380;28;20193;-72
2023/05/22 12:46:03;;;;;;;85.32;80.53;;;35.40;63.70;;;;;;4974170;28;20228;-72
2023/05/22 12:48:28;;;;;;;95.57;90.47;;;34.80;64.90;;;;;;4974015;28;20525;-73
2023/05/22 12:50:54;;;;;;;87.38;82.80;;;34.90;63.20;;;;;;4957143;28;20197;-72
2023/05/22 12:53:20;;;;;;;69.97;66.15;;;35.30;61.50;;;;;;4973986;28;20656;-72
2023/05/22 12:55:46;;;;;;;95.60;90.38;;;35.40;62.30;;;;;;4957092;28;20775;-72
2023/05/22 12:58:11;;;;;;;79.50;75.05;;;35.70;60.70;;;;;;4956605;28;20665;-73
2023/05/22 13:00:37;;;;;;;90.45;85.63;;;35.70;60.20;;;;;;4956908;28;20193;-73
2023/05/22 13:03:05;;;;;;;84.07;79.68;;;35.40;62.60;;;;;;4957176;28;20276;-73
2023/05/22 13:05:30;;;;;;;57.20;54.10;;;35.40;59.40;;;;;;4974174;28;20220;-73
2023/05/22 13:07:56;;;;;;;26.92;25.10;;;35.70;59.30;;;;;;4973088;28;20212;-73
2023/05/22 13:10:22;;;;;;;30.10;28.25;;;35.60;57.40;;;;;;4974104;28;20189;-73
2023/05/22 13:12:50;;;;;;;10.88;10.07;;;35.90;58.40;;;;;;4974034;28;20188;-73
2023/05/22 13:15:17;;;;;;;11.13;10.15;;;36.40;56.60;;;;;;4955949;28;20296;-73
2023/05/22 13:17:42;;;;;;;11.07;10.30;;;37.00;54.40;;;;;;4956719;28;20639;-73
2023/05/22 13:20:09;;;;;;;18.52;17.27;;;37.30;53.10;;;;;;4974256;28;20220;-74
2023/05/22 13:22:35;;;;;;;36.30;34.15;;;37.60;51.80;;;;;;4973724;28;20185;-74
2023/05/22 13:25:00;;;;;;;33.67;31.52;;;37.70;50.90;;;;;;4974057;28;20220;-73
2023/05/22 13:27:26;;;;;;;40.28;38.05;;;37.60;51.70;;;;;;4955913;28;20193;-73
2023/05/22 13:29:52;;;;;;;25.83;24.25;;;37.40;53.10;;;;;;4973170;28;20291;-73
2023/05/22 13:32:19;;;;;;;22.08;20.58;;;37.30;53.90;;;;;;4956237;28;20277;-74
2023/05/22 13:34:44;;;;;;;24.48;22.88;;;37.90;52.80;;;;;;4973520;28;20233;-73
2023/05/22 13:37:10;;;;;;;23.00;21.42;;;38.00;53.60;;;;;;4973575;28;20532;-73
2023/05/22 13:39:36;;;;;;;24.40;22.83;;;37.50;54.80;;;;;;4973787;28;20200;-73
2023/05/22 13:42:02;;;;;;;21.15;19.83;;;36.80;55.30;;;;;;4965835;28;20276;-74
2023/05/22 13:44:28;;;;;;;9.70;8.82;;;36.50;56.00;;;;;;4973459;28;20224;-73
2023/05/22 13:46:54;;;;;;;11.02;10.00;;;35.80;56.90;;;;;;4973760;28;20548;-74
2023/05/22 13:49:20;;;;;;;11.77;10.88;;;35.70;56.40;;;;;;4973699;28;20211;-73
2023/05/22 13:51:47;;;;;;;11.68;10.77;;;35.90;56.30;;;;;;4973503;28;20220;-73
2023/05/22 13:54:13;;;;;;;15.63;14.20;;;35.60;56.30;;;;;;4973382;28;20216;-73
2023/05/22 13:56:38;;;;;;;12.07;10.90;;;35.90;57.00;;;;;;4973632;28;20653;-73
2023/05/22 13:59:04;;;;;;;13.20;11.73;;;36.10;55.40;;;;;;4952620;28;20197;-73
2023/05/22 14:01:30;;;;;;;12.88;11.98;;;36.60;56.70;;;;;;4951434;28;20660;-72
2023/05/22 14:03:56;;;;;;;11.25;10.35;;;37.50;56.50;;;;;;4973207;28;20197;-72
2023/05/22 14:06:22;;;;;;;15.00;13.70;;;37.90;54.60;;;;;;4955809;28;20276;-72
2023/05/22 14:08:48;;;;;;;15.80;14.55;;;37.10;55.00;;;;;;4972655;28;20288;-72
2023/05/22 14:11:13;;;;;;;13.30;12.30;;;36.90;54.90;;;;;;4973323;28;20275;-71
2023/05/22 14:13:39;;;;;;;10.65;9.75;;;36.80;55.00;;;;;;4972802;28;20232;-72
2023/05/22 14:16:05;;;;;;;10.27;9.27;;;37.20;57.20;;;;;;4972712;28;20224;-71
2023/05/22 14:18:31;;;;;;;14.60;13.50;;;36.80;55.60;;;;;;4955415;28;20211;-72
2023/05/22 14:20:56;;;;;;;11.25;10.43;;;36.20;53.60;;;;;;4972792;28;20284;-72
2023/05/22 14:23:22;;;;;;;11.73;10.75;;;35.90;53.20;;;;;;4972452;28;20200;-72
2023/05/22 14:25:48;;;;;;;11.48;10.57;;;35.70;55.90;;;;;;4972012;28;20240;-73
2023/05/22 14:28:15;;;;;;;9.43;8.65;;;35.50;55.40;;;;;;4954337;28;20264;-72
2023/05/22 14:30:41;;;;;;;18.00;16.58;;;35.70;54.90;;;;;;4972504;28;20192;-72
2023/05/22 14:33:07;;;;;;;9.70;8.93;;;36.30;55.40;;;;;;4972894;28;20638;-72
2023/05/22 14:35:33;;;;;;;14.25;13.00;;;37.00;53.50;;;;;;4955541;28;20213;-72
2023/05/22 14:37:58;;;;;;;22.27;20.83;;;37.80;51.50;;;;;;4972379;28;20287;-72
2023/05/22 14:40:24;;;;;;;31.27;29.45;;;38.10;52.20;;;;;;4972823;28;20181;-72
2023/05/22 14:42:50;;;;;;;28.75;26.65;;;37.50;50.90;;;;;;4955439;28;20200;-72
2023/05/22 14:45:16;;;;;;;19.73;18.02;;;37.30;50.90;;;;;;4972502;28;20201;-72
2023/05/22 14:47:42;;;;;;;23.48;22.02;;;37.40;50.40;;;;;;4972388;28;20198;-72
2023/05/22 14:50:11;;;;;;;24.55;22.90;;;37.80;51.20;;;;;;4972694;28;20221;-72
2023/05/22 14:52:37;;;;;;;25.20;23.60;;;38.10;49.40;;;;;;4972645;28;20193;-72
2023/05/22 14:55:03;;;;;;;27.27;25.20;;;38.30;49.00;;;;;;4972302;28;20675;-72
2023/05/22 14:57:30;;;;;;;25.42;23.83;;;38.10;48.30;;;;;;4972228;28;20193;-72
2023/05/22 14:59:56;;;;;;;26.35;24.85;;;37.10;50.80;;;;;;4972168;28;20198;-72
2023/05/22 15:02:21;;;;;;;14.23;13.13;;;35.60;53.30;;;;;;4972441;28;20196;-72
2023/05/22 15:04:47;;;;;;;12.60;11.55;;;35.70;53.90;;;;;;4972153;28;20697;-72
2023/05/22 15:07:13;;;;;;;9.98;9.18;;;35.30;52.80;;;;;;4971677;28;20192;-72
2023/05/22 15:09:40;;;;;;;121.07;114.63;;;33.70;53.60;;;;;;4964799;28;20547;-72
2023/05/22 15:12:06;;;;;;;200.85;190.88;;;32.90;56.60;;;;;;4955007;28;20207;-72
2023/05/22 15:14:31;;;;;;;130.75;124.22;;;32.50;58.40;;;;;;4992877;23;20220;-73
2023/05/22 15:16:59;;;;;;;94.20;89.30;;;32.40;59.90;;;;;;4952874;28;20189;-73
2023/05/22 15:19:25;;;;;;;81.38;76.90;;;32.70;59.20;;;;;;4955057;28;20181;-72
2023/05/22 15:21:51;;;;;;;66.97;63.28;;;32.60;58.90;;;;;;4972197;28;20200;-72
2023/05/22 15:24:17;;;;;;;69.93;66.07;;;32.40;59.90;;;;;;4972197;28;20576;-72
2023/05/22 15:26:42;;;;;;;95.20;89.88;;;32.20;58.40;;;;;;4952913;28;20217;-72